Time;durP1;ratioP1;P1;durP2;ratioP2;P2;SDS_P1;SDS_P2;PMS_P1;PMS_P2;Temp;Humidity;BMP_temperature;BMP_pressure;BME280_temperature;BME280_humidity;BME280_pressure;Samples;Min_cycle;Max_cycle;Signal;HPM_P1;HPM_P2
2022/10/31 00:01:23;;;;;;;8.87;1.70;;;23.80;54.10;;;;;;4055850;29;20062;-51
2022/10/31 00:03:49;;;;;;;4.65;1.38;;;23.90;54.00;;;;;;4056266;29;20049;-48
2022/10/31 00:06:11;;;;;;;2.67;1.10;;;23.90;54.20;;;;;;4055279;29;20047;-47
2022/10/31 00:08:34;;;;;;;5.57;1.58;;;24.00;54.00;;;;;;4055391;29;20037;-52
2022/10/31 00:10:57;;;;;;;2.83;1.27;;;23.90;53.80;;;;;;4055865;29;20032;-47
2022/10/31 00:13:19;;;;;;;4.05;1.45;;;24.00;53.80;;;;;;4057513;29;20508;-45
2022/10/31 00:15:42;;;;;;;3.65;1.27;;;24.00;53.80;;;;;;4059038;29;20044;-48
2022/10/31 00:18:08;;;;;;;1.70;1.15;;;24.00;53.90;;;;;;4055893;29;20032;-45
2022/10/31 00:20:31;;;;;;;3.58;0.80;;;24.10;53.90;;;;;;4055585;29;20044;-48
2022/10/31 00:22:57;;;;;;;7.07;1.50;;;24.10;53.90;;;;;;4057065;29;20123;-47
2022/10/31 00:25:20;;;;;;;7.05;1.38;;;24.10;53.60;;;;;;4052423;29;20405;-42
2022/10/31 00:27:43;;;;;;;5.88;1.85;;;24.10;53.60;;;;;;4055495;29;20494;-46
2022/10/31 00:30:06;;;;;;;7.80;1.45;;;24.20;54.50;;;;;;4053459;29;20028;-46
2022/10/31 00:32:30;;;;;;;9.13;1.47;;;24.20;54.80;;;;;;4056152;29;20043;-45
2022/10/31 00:34:52;;;;;;;7.63;1.52;;;24.30;54.90;;;;;;4055835;29;20291;-41
2022/10/31 00:37:15;;;;;;;5.25;1.50;;;24.30;54.90;;;;;;4050509;29;20460;-44
2022/10/31 00:39:37;;;;;;;6.38;1.58;;;24.40;55.00;;;;;;4046788;29;20048;-44
2022/10/31 00:42:00;;;;;;;5.13;1.33;;;24.40;54.90;;;;;;4049619;29;20072;-46
2022/10/31 00:44:22;;;;;;;7.45;1.05;;;24.50;54.70;;;;;;4044667;29;20482;-47
2022/10/31 00:46:45;;;;;;;4.47;1.00;;;24.60;54.80;;;;;;4049641;29;20202;-49
2022/10/31 00:49:07;;;;;;;5.35;1.52;;;24.60;54.80;;;;;;4055263;29;20182;-46
2022/10/31 00:51:30;;;;;;;2.38;0.98;;;24.60;54.80;;;;;;4058529;29;20063;-46
2022/10/31 00:53:52;;;;;;;3.47;1.20;;;24.70;54.80;;;;;;4056445;29;20048;-42
2022/10/31 00:56:15;;;;;;;4.15;0.90;;;24.80;54.80;;;;;;4050531;29;20044;-42
2022/10/31 00:58:38;;;;;;;3.58;1.45;;;24.80;54.70;;;;;;4055151;29;20596;-46
2022/10/31 01:01:00;;;;;;;1.93;1.17;;;24.80;54.70;;;;;;4057057;29;20123;-44
2022/10/31 01:03:29;;;;;;;3.58;1.00;;;24.90;54.50;;;;;;4056219;29;20054;-47
2022/10/31 01:06:12;;;;;;;2.25;1.10;;;24.80;54.00;;;;;;4056882;29;20032;-43
2022/10/31 01:08:35;;;;;;;4.35;1.25;;;24.80;53.80;;;;;;4051743;29;20044;-43
2022/10/31 01:11:06;;;;;;;4.20;1.50;;;24.80;54.00;;;;;;4056149;29;20127;-44
2022/10/31 01:13:28;;;;;;;3.83;1.50;;;24.80;54.20;;;;;;4053272;29;20185;-43
2022/10/31 01:15:59;;;;;;;6.50;1.40;;;24.90;54.60;;;;;;4055623;29;20032;-44
2022/10/31 01:18:21;;;;;;;7.25;1.60;;;24.90;54.70;;;;;;4061032;29;20127;-46
2022/10/31 01:20:44;;;;;;;4.63;0.95;;;25.00;54.90;;;;;;4057196;29;20040;-43
2022/10/31 01:23:06;;;;;;;3.10;1.40;;;25.00;55.10;;;;;;4061000;29;20047;-47
2022/10/31 01:25:29;;;;;;;2.20;0.80;;;25.00;55.10;;;;;;4057619;29;20167;-45
2022/10/31 01:27:51;;;;;;;4.70;0.93;;;25.10;55.20;;;;;;4060631;29;20468;-44
2022/10/31 01:30:14;;;;;;;5.32;1.38;;;25.10;55.20;;;;;;4057280;29;20519;-44
2022/10/31 01:32:36;;;;;;;4.50;1.10;;;25.20;55.30;;;;;;4056205;29;20497;-47
2022/10/31 01:34:59;;;;;;;1.00;0.80;;;25.20;55.20;;;;;;4059253;29;20048;-49
2022/10/31 01:37:21;;;;;;;1.98;1.13;;;25.20;55.10;;;;;;4061135;29;20052;-45
2022/10/31 01:39:44;;;;;;;3.83;1.20;;;25.30;55.20;;;;;;4056895;29;20076;-47
2022/10/31 01:42:06;;;;;;;4.60;1.48;;;25.30;55.20;;;;;;4061286;29;20056;-47
2022/10/31 01:44:29;;;;;;;2.78;1.20;;;25.40;55.20;;;;;;4060075;29;20040;-48
2022/10/31 01:47:00;;;;;;;2.75;1.10;;;25.40;55.20;;;;;;4059362;29;20051;-45
2022/10/31 01:49:25;;;;;;;1.65;0.88;;;25.40;55.00;;;;;;4060410;29;20074;-48
2022/10/31 01:51:57;;;;;;;2.50;0.90;;;25.50;54.90;;;;;;4060365;29;20048;-47
2022/10/31 01:54:24;;;;;;;7.63;1.35;;;25.50;54.90;;;;;;4060734;29;20050;-46
2022/10/31 01:56:50;;;;;;;5.25;1.10;;;25.50;54.90;;;;;;4058600;29;20040;-44
2022/10/31 01:59:18;;;;;;;3.75;1.23;;;25.60;54.90;;;;;;4055381;29;21582;-45
2022/10/31 02:01:40;;;;;;;1.77;0.90;;;25.60;54.90;;;;;;4060167;29;20115;-45
2022/10/31 02:04:03;;;;;;;2.65;1.10;;;25.60;54.90;;;;;;4059302;29;20036;-43
2022/10/31 02:06:53;;;;;;;3.45;1.13;;;25.60;55.20;;;;;;4060387;29;20070;-45
2022/10/31 02:09:23;;;;;;;2.03;0.98;;;25.70;55.20;;;;;;4058581;29;20104;-45
2022/10/31 02:11:46;;;;;;;2.40;0.85;;;25.70;55.20;;;;;;4061297;29;20047;-46
2022/10/31 02:14:09;;;;;;;1.92;0.93;;;25.70;55.20;;;;;;4049416;29;20044;-49
2022/10/31 02:16:31;;;;;;;3.20;0.90;;;25.70;55.20;;;;;;4061236;29;20044;-42
2022/10/31 02:18:54;;;;;;;2.05;1.10;;;25.80;55.40;;;;;;4054701;29;20087;-43
2022/10/31 02:21:37;;;;;;;3.45;1.20;;;25.80;55.40;;;;;;4057818;29;20115;-42
2022/10/31 02:24:25;;;;;;;1.58;0.80;;;25.80;55.40;;;;;;4058360;29;20431;-43
2022/10/31 02:27:08;;;;;;;1.27;0.77;;;25.80;55.40;;;;;;4058326;29;20415;-44
2022/10/31 02:29:53;;;;;;;1.63;0.90;;;25.80;55.30;;;;;;4051409;29;20048;-44
2022/10/31 02:32:22;;;;;;;1.85;1.00;;;25.80;55.30;;;;;;4058034;29;20158;-46
2022/10/31 02:34:57;;;;;;;3.03;0.90;;;25.90;55.40;;;;;;4058027;29;20075;-43
2022/10/31 02:37:30;;;;;;;5.22;0.93;;;25.90;55.40;;;;;;4051938;29;20044;-46
2022/10/31 02:40:15;;;;;;;3.25;0.88;;;25.90;55.40;;;;;;4058652;29;20044;-46
2022/10/31 02:42:55;;;;;;;1.23;0.98;;;25.90;55.30;;;;;;4058004;29;20503;-43
2022/10/31 02:45:21;;;;;;;3.13;1.00;;;25.90;55.20;;;;;;4059420;29;20037;-46
2022/10/31 02:47:44;;;;;;;4.00;1.52;;;25.90;55.40;;;;;;4057322;29;20048;-43
2022/10/31 02:50:26;;;;;;;3.80;1.05;;;25.90;55.50;;;;;;4053992;29;20041;-45
2022/10/31 02:52:52;;;;;;;1.67;1.10;;;26.00;55.50;;;;;;4058059;29;20350;-44
2022/10/31 02:55:34;;;;;;;3.50;0.98;;;26.00;55.60;;;;;;4057732;29;20452;-46
2022/10/31 02:58:11;;;;;;;3.75;0.90;;;26.00;55.50;;;;;;4054233;29;20958;-44
2022/10/31 03:00:47;;;;;;;4.47;1.40;;;26.00;55.60;;;;;;4048822;29;20112;-44
2022/10/31 03:03:42;;;;;;;2.15;1.00;;;26.00;55.30;;;;;;4052821;29;20082;-44
2022/10/31 03:06:15;;;;;;;1.67;0.80;;;26.00;55.50;;;;;;4056008;29;20050;-43
2022/10/31 03:08:51;;;;;;;1.73;0.70;;;26.00;55.60;;;;;;4051397;29;20041;-48
2022/10/31 03:11:13;;;;;;;1.23;0.60;;;26.10;55.70;;;;;;4049507;29;20044;-47
2022/10/31 03:13:41;;;;;;;4.70;1.00;;;26.10;55.90;;;;;;4057454;29;20036;-43
2022/10/31 03:16:40;;;;;;;2.03;0.90;;;26.10;55.90;;;;;;4057571;29;20048;-43
2022/10/31 03:19:51;;;;;;;2.13;0.95;;;26.10;56.00;;;;;;4052763;29;20259;-43
2022/10/31 03:22:19;;;;;;;5.75;0.90;;;26.10;56.00;;;;;;4053336;29;20051;-44
2022/10/31 03:24:43;;;;;;;3.28;0.82;;;26.10;56.10;;;;;;4055277;29;20040;-44
2022/10/31 03:27:11;;;;;;;1.33;0.70;;;26.10;56.10;;;;;;4059767;29;20042;-43
2022/10/31 03:29:36;;;;;;;1.42;0.77;;;26.20;56.10;;;;;;4057380;29;20282;-43
2022/10/31 03:32:05;;;;;;;1.35;0.70;;;26.20;56.20;;;;;;4056340;29;20043;-47
2022/10/31 03:34:30;;;;;;;3.03;1.08;;;26.20;56.20;;;;;;4058848;29;20067;-44
2022/10/31 03:36:57;;;;;;;4.07;0.88;;;26.20;56.30;;;;;;4055483;29;20123;-47
2022/10/31 03:39:22;;;;;;;3.05;1.27;;;26.20;56.20;;;;;;4057112;29;20048;-45
2022/10/31 03:41:51;;;;;;;2.13;0.82;;;26.20;56.40;;;;;;4057017;29;20064;-45
2022/10/31 03:44:18;;;;;;;4.20;0.90;;;26.20;56.30;;;;;;4055931;29;20095;-45
2022/10/31 03:46:42;;;;;;;2.03;0.98;;;26.20;56.30;;;;;;4054177;29;20048;-43
2022/10/31 03:49:04;;;;;;;3.38;1.00;;;26.20;56.40;;;;;;4059376;29;20346;-43
2022/10/31 03:51:39;;;;;;;2.10;0.90;;;26.30;56.40;;;;;;4055127;29;20056;-44
2022/10/31 03:54:27;;;;;;;1.77;0.98;;;26.30;56.40;;;;;;4056953;29;20048;-47
2022/10/31 03:57:05;;;;;;;2.85;0.90;;;26.30;56.30;;;;;;4043932;29;20036;-43
2022/10/31 03:59:32;;;;;;;2.05;0.90;;;26.30;56.30;;;;;;4052987;29;20044;-44
2022/10/31 04:02:00;;;;;;;2.35;0.70;;;26.40;56.30;;;;;;4055357;29;20059;-46
2022/10/31 04:04:23;;;;;;;1.40;0.80;;;26.50;56.30;;;;;;4054425;29;20393;-43
2022/10/31 04:06:47;;;;;;;0.95;0.65;;;26.50;56.30;;;;;;4055340;29;20460;-45
2022/10/31 04:09:10;;;;;;;4.35;0.88;;;26.50;56.20;;;;;;4054987;29;20040;-45
2022/10/31 04:11:39;;;;;;;2.95;0.82;;;26.60;56.30;;;;;;4055773;29;20099;-44
2022/10/31 04:14:05;;;;;;;1.83;0.80;;;26.60;56.20;;;;;;4056336;29;20075;-48
2022/10/31 04:16:28;;;;;;;5.70;1.05;;;26.60;56.20;;;;;;4042461;29;20054;-44
2022/10/31 04:18:51;;;;;;;2.72;0.80;;;26.60;56.70;;;;;;4056250;29;20547;-42
2022/10/31 04:21:13;;;;;;;4.43;1.05;;;26.70;55.80;;;;;;4057330;29;20088;-44
2022/10/31 04:23:37;;;;;;;2.88;0.70;;;26.60;55.90;;;;;;4057172;29;20488;-43
2022/10/31 04:25:59;;;;;;;1.77;1.00;;;26.60;56.00;;;;;;4058065;29;20440;-43
2022/10/31 04:28:22;;;;;;;1.70;0.70;;;26.70;56.30;;;;;;4051598;29;20059;-41
2022/10/31 04:30:45;;;;;;;1.80;1.00;;;26.70;56.30;;;;;;4056547;29;20040;-45
2022/10/31 04:33:07;;;;;;;1.67;0.77;;;26.70;56.20;;;;;;4055402;29;20441;-42
2022/10/31 04:35:30;;;;;;;1.45;0.80;;;26.70;56.20;;;;;;4052249;29;20040;-42
2022/10/31 04:37:52;;;;;;;2.00;1.10;;;26.70;56.20;;;;;;4055699;29;20044;-43
2022/10/31 04:40:15;;;;;;;2.13;0.98;;;26.70;56.30;;;;;;4054608;29;20060;-44
2022/10/31 04:42:37;;;;;;;1.73;0.93;;;26.70;56.20;;;;;;4057142;29;20056;-46
2022/10/31 04:45:00;;;;;;;4.30;1.00;;;26.70;56.20;;;;;;4054644;29;20040;-45
2022/10/31 04:47:23;;;;;;;2.17;1.05;;;26.70;56.30;;;;;;4054676;29;20071;-47
2022/10/31 04:49:45;;;;;;;1.75;0.68;;;26.70;56.50;;;;;;4055056;29;20040;-43
2022/10/31 04:52:08;;;;;;;3.15;1.05;;;26.70;56.50;;;;;;4048997;29;20513;-45
2022/10/31 04:54:30;;;;;;;1.20;0.77;;;26.70;56.60;;;;;;4056741;29;20111;-44
2022/10/31 04:56:53;;;;;;;1.55;0.90;;;26.70;56.60;;;;;;4058214;29;20051;-43
2022/10/31 04:59:15;;;;;;;2.13;0.57;;;26.70;56.70;;;;;;4057184;29;20043;-45
2022/10/31 05:01:38;;;;;;;2.20;0.90;;;26.80;56.80;;;;;;4050642;29;20049;-44
2022/10/31 05:04:00;;;;;;;7.30;0.70;;;26.80;56.80;;;;;;4049483;29;20054;-42
2022/10/31 05:06:23;;;;;;;6.78;1.13;;;26.80;56.80;;;;;;4058802;29;20846;-45
2022/10/31 05:08:45;;;;;;;1.40;0.75;;;26.80;56.80;;;;;;4056536;29;20040;-44
2022/10/31 05:11:08;;;;;;;1.77;0.80;;;26.80;56.80;;;;;;4056929;29;20051;-43
2022/10/31 05:13:31;;;;;;;2.20;0.85;;;26.80;56.90;;;;;;4058465;29;20040;-43
2022/10/31 05:15:53;;;;;;;1.63;0.95;;;26.80;56.90;;;;;;4057283;29;20142;-49
2022/10/31 05:18:16;;;;;;;1.92;0.90;;;26.80;56.90;;;;;;4058153;29;20127;-47
2022/10/31 05:20:38;;;;;;;1.35;0.80;;;26.80;56.90;;;;;;4055609;29;20265;-46
2022/10/31 05:23:01;;;;;;;1.92;1.00;;;26.80;56.90;;;;;;4053644;29;20052;-47
2022/10/31 05:25:26;;;;;;;2.30;0.88;;;26.90;57.00;;;;;;4050477;29;20123;-44
2022/10/31 05:27:50;;;;;;;1.52;0.80;;;26.90;57.00;;;;;;4053166;29;21385;-42
2022/10/31 05:30:16;;;;;;;2.95;0.82;;;26.90;57.00;;;;;;4054207;29;20044;-49
2022/10/31 05:32:40;;;;;;;1.30;0.50;;;26.90;57.00;;;;;;4057265;29;20043;-51
2022/10/31 05:35:03;;;;;;;2.75;1.00;;;26.90;56.80;;;;;;4056273;29;21147;-53
2022/10/31 05:37:25;;;;;;;2.42;1.00;;;26.90;57.00;;;;;;4058252;29;20040;-47
2022/10/31 05:39:48;;;;;;;1.92;0.85;;;26.90;57.10;;;;;;4045982;29;20048;-45
2022/10/31 05:42:11;;;;;;;1.08;0.65;;;26.90;57.10;;;;;;4053622;29;20455;-48
2022/10/31 05:44:33;;;;;;;2.63;0.93;;;26.90;57.10;;;;;;4052653;29;20044;-46
2022/10/31 05:46:56;;;;;;;0.93;0.75;;;27.00;57.20;;;;;;4058165;29;20032;-45
2022/10/31 05:49:18;;;;;;;2.45;0.80;;;27.00;57.10;;;;;;4053913;29;20049;-49
2022/10/31 05:51:41;;;;;;;1.83;0.93;;;27.10;57.10;;;;;;4054538;29;20424;-44
2022/10/31 05:54:03;;;;;;;1.40;0.82;;;27.10;57.00;;;;;;4053329;29;20072;-46
2022/10/31 05:56:26;;;;;;;1.33;0.73;;;27.20;57.20;;;;;;4054795;29;20040;-45
2022/10/31 05:58:49;;;;;;;1.15;0.70;;;27.20;57.20;;;;;;4057834;29;20316;-45
2022/10/31 06:01:11;;;;;;;1.35;0.80;;;27.30;57.10;;;;;;4058398;29;20181;-45
2022/10/31 06:03:34;;;;;;;2.00;1.00;;;27.40;56.90;;;;;;4057432;29;20044;-45
2022/10/31 06:05:56;;;;;;;1.95;0.73;;;27.40;56.60;;;;;;4059668;29;20590;-46
2022/10/31 06:08:19;;;;;;;2.10;0.80;;;27.50;56.50;;;;;;4061171;29;20040;-48
2022/10/31 06:10:41;;;;;;;7.35;0.95;;;27.60;56.60;;;;;;4060562;29;20094;-44
2022/10/31 06:13:06;;;;;;;2.47;0.80;;;27.60;56.60;;;;;;4056318;29;20037;-42
2022/10/31 06:15:28;;;;;;;2.25;0.90;;;27.60;56.60;;;;;;4055738;29;20111;-48
2022/10/31 06:18:05;;;;;;;1.45;0.63;;;27.60;56.60;;;;;;4055780;29;20464;-45
2022/10/31 06:20:28;;;;;;;1.85;0.60;;;27.70;56.70;;;;;;4058782;29;20886;-46
2022/10/31 06:22:50;;;;;;;1.80;0.70;;;27.60;56.50;;;;;;4056089;29;20054;-44
2022/10/31 06:25:13;;;;;;;2.35;0.80;;;27.60;56.40;;;;;;4055838;29;20738;-43
2022/10/31 06:27:35;;;;;;;3.03;0.93;;;27.60;56.30;;;;;;4057679;29;20054;-44
2022/10/31 06:29:58;;;;;;;3.22;0.80;;;27.60;56.30;;;;;;4059922;29;20040;-47
2022/10/31 06:32:21;;;;;;;2.25;0.73;;;27.60;56.30;;;;;;4059374;29;20036;-49
2022/10/31 06:34:44;;;;;;;4.38;0.95;;;27.60;56.30;;;;;;4057680;29;20074;-46
2022/10/31 06:37:08;;;;;;;1.23;0.50;;;27.60;56.40;;;;;;4057586;29;20036;-46
2022/10/31 06:39:31;;;;;;;3.05;0.77;;;27.60;56.40;;;;;;4064772;29;20042;-45
2022/10/31 06:41:53;;;;;;;2.40;0.80;;;27.60;56.40;;;;;;4059285;29;20060;-45
2022/10/31 06:44:16;;;;;;;2.70;0.80;;;27.60;56.40;;;;;;4056174;29;20048;-44
2022/10/31 06:46:38;;;;;;;1.50;0.68;;;27.60;56.50;;;;;;4056481;29;20040;-44
2022/10/31 06:49:01;;;;;;;2.10;0.80;;;27.60;55.60;;;;;;4054940;29;20032;-49
2022/10/31 06:51:23;;;;;;;1.13;0.95;;;27.60;54.90;;;;;;4059028;29;20064;-45
2022/10/31 06:53:46;;;;;;;1.65;0.70;;;27.50;54.50;;;;;;4055520;29;20484;-48
2022/10/31 06:56:08;;;;;;;1.17;0.70;;;27.50;54.30;;;;;;4051964;29;20075;-49
2022/10/31 06:58:31;;;;;;;0.70;0.70;;;27.50;55.00;;;;;;4051922;29;20032;-47
2022/10/31 07:00:53;;;;;;;0.75;0.73;;;27.40;55.50;;;;;;4055827;29;20051;-44
2022/10/31 07:03:17;;;;;;;1.23;0.80;;;27.50;56.00;;;;;;4056577;29;20496;-47
2022/10/31 07:05:39;;;;;;;1.83;0.82;;;27.50;56.30;;;;;;4057085;29;20048;-46
2022/10/31 07:08:05;;;;;;;1.25;0.80;;;27.50;56.40;;;;;;4059564;29;20256;-49
2022/10/31 07:10:30;;;;;;;1.20;0.93;;;27.50;56.40;;;;;;4060131;29;20047;-44
2022/10/31 07:12:57;;;;;;;0.85;0.70;;;27.50;56.40;;;;;;4052346;29;20609;-47
2022/10/31 07:15:19;;;;;;;1.80;0.85;;;27.60;56.70;;;;;;4056208;29;20044;-45
2022/10/31 07:17:42;;;;;;;1.35;0.70;;;27.60;56.70;;;;;;4048800;29;20037;-44
2022/10/31 07:20:05;;;;;;;2.95;0.80;;;27.60;56.70;;;;;;4055476;29;20043;-46
2022/10/31 07:22:34;;;;;;;1.77;0.80;;;27.60;56.80;;;;;;4057946;29;20095;-47
2022/10/31 07:24:56;;;;;;;3.13;0.93;;;27.60;56.90;;;;;;4056613;29;20286;-44
2022/10/31 07:27:19;;;;;;;2.28;1.00;;;27.60;57.00;;;;;;4054132;29;20079;-46
2022/10/31 07:29:41;;;;;;;2.72;0.88;;;27.60;57.10;;;;;;4056160;29;20040;-47
2022/10/31 07:32:04;;;;;;;1.95;1.35;;;27.60;57.00;;;;;;4054038;29;20040;-51
2022/10/31 07:34:27;;;;;;;6.10;1.03;;;27.60;57.00;;;;;;4056022;29;20182;-50
2022/10/31 07:36:51;;;;;;;3.17;0.80;;;27.60;57.20;;;;;;4054326;29;20047;-45
2022/10/31 07:39:14;;;;;;;2.53;1.20;;;27.60;57.40;;;;;;4056306;29;20516;-45
2022/10/31 07:41:36;;;;;;;2.42;0.93;;;27.60;57.40;;;;;;4050278;29;20052;-46
2022/10/31 07:43:59;;;;;;;4.10;1.00;;;27.60;57.30;;;;;;4054970;29;20515;-45
2022/10/31 07:46:23;;;;;;;0.93;0.55;;;27.70;57.50;;;;;;4053918;29;20495;-44
2022/10/31 07:48:45;;;;;;;2.05;0.93;;;27.60;57.30;;;;;;4055826;29;20133;-49
2022/10/31 07:51:08;;;;;;;1.52;0.93;;;27.70;57.40;;;;;;4055720;29;20390;-44
2022/10/31 07:53:30;;;;;;;1.13;0.70;;;27.70;57.50;;;;;;4056829;29;20489;-45
2022/10/31 07:55:53;;;;;;;2.13;0.90;;;27.70;57.20;;;;;;4056435;29;20042;-45
2022/10/31 07:58:17;;;;;;;1.90;0.90;;;27.70;57.10;;;;;;4056960;29;20048;-46
2022/10/31 08:00:41;;;;;;;3.28;0.90;;;27.70;57.10;;;;;;4056147;29;20040;-44
2022/10/31 08:03:09;;;;;;;3.00;1.20;;;27.70;57.50;;;;;;4054608;29;20457;-49
2022/10/31 08:05:33;;;;;;;6.05;1.42;;;27.70;57.40;;;;;;4055293;29;20032;-44
2022/10/31 08:07:56;;;;;;;10.52;1.17;;;27.70;57.50;;;;;;4055309;29;20226;-49
2022/10/31 08:10:18;;;;;;;6.90;1.13;;;27.70;57.20;;;;;;4056953;29;20510;-49
2022/10/31 08:12:41;;;;;;;4.25;0.90;;;27.70;57.00;;;;;;4056025;29;20052;-47
2022/10/31 08:15:03;;;;;;;5.07;0.80;;;27.70;56.90;;;;;;4054284;29;20096;-52
2022/10/31 08:17:26;;;;;;;7.40;0.70;;;27.70;56.80;;;;;;4054909;29;20040;-48
2022/10/31 08:19:48;;;;;;;2.83;0.70;;;27.70;56.70;;;;;;4055612;29;20108;-43
2022/10/31 08:22:11;;;;;;;0.55;0.40;;;27.70;56.60;;;;;;4054147;29;20441;-50
2022/10/31 08:24:33;;;;;;;1.10;0.60;;;27.70;56.60;;;;;;4056155;29;20090;-44
2022/10/31 08:26:56;;;;;;;1.70;0.50;;;27.70;56.50;;;;;;4047548;29;20040;-47
2022/10/31 08:29:19;;;;;;;2.92;0.63;;;27.70;56.50;;;;;;4050582;29;20538;-48
2022/10/31 08:31:42;;;;;;;1.13;0.43;;;27.80;56.50;;;;;;4055853;29;20507;-43
2022/10/31 08:34:04;;;;;;;6.10;0.60;;;27.70;56.50;;;;;;4052925;29;20107;-45
2022/10/31 08:36:28;;;;;;;2.30;0.40;;;27.80;56.70;;;;;;4055405;29;20051;-47
2022/10/31 08:38:51;;;;;;;2.00;0.50;;;27.70;56.70;;;;;;4056112;29;20036;-49
2022/10/31 08:41:14;;;;;;;2.70;0.63;;;27.70;56.70;;;;;;4054260;29;20040;-45
2022/10/31 08:43:36;;;;;;;2.30;0.82;;;27.70;56.70;;;;;;4054198;29;20492;-48
2022/10/31 08:45:59;;;;;;;3.95;0.60;;;27.70;56.80;;;;;;4054050;29;20299;-45
2022/10/31 08:48:22;;;;;;;0.97;0.73;;;27.70;56.90;;;;;;4053821;29;20262;-46
2022/10/31 08:50:45;;;;;;;2.22;0.50;;;27.70;56.90;;;;;;4055489;29;20814;-52
2022/10/31 08:53:14;;;;;;;0.65;0.32;;;27.70;57.00;;;;;;4054914;29;20601;-48
2022/10/31 08:55:38;;;;;;;1.00;0.40;;;27.70;57.00;;;;;;4055298;29;20040;-49
2022/10/31 08:58:01;;;;;;;0.65;0.40;;;27.70;56.90;;;;;;4054854;29;20081;-50
2022/10/31 09:00:24;;;;;;;1.13;0.35;;;27.70;57.00;;;;;;4054669;29;20576;-49
2022/10/31 09:02:47;;;;;;;1.52;0.45;;;27.70;57.10;;;;;;4052509;29;20052;-47
2022/10/31 09:05:09;;;;;;;1.30;0.38;;;27.70;57.10;;;;;;4054443;29;20081;-54
2022/10/31 09:07:32;;;;;;;1.10;0.40;;;27.70;57.10;;;;;;4054491;29;20095;-52
2022/10/31 09:09:55;;;;;;;1.23;0.28;;;27.70;57.10;;;;;;4050440;29;20036;-48
2022/10/31 09:12:18;;;;;;;0.95;0.40;;;27.80;57.00;;;;;;4054983;29;20048;-51
2022/10/31 09:14:40;;;;;;;1.08;0.50;;;27.80;57.00;;;;;;4054197;29;20103;-48
2022/10/31 09:17:03;;;;;;;5.78;0.50;;;27.80;57.00;;;;;;4051995;29;20215;-47
2022/10/31 09:19:25;;;;;;;0.60;0.50;;;27.70;56.90;;;;;;4054093;29;20056;-49
2022/10/31 09:21:48;;;;;;;0.60;0.32;;;27.70;56.90;;;;;;4055268;29;20098;-43
2022/10/31 09:24:10;;;;;;;1.55;0.30;;;27.70;57.00;;;;;;4052557;29;20091;-54
2022/10/31 09:26:34;;;;;;;0.32;0.30;;;27.70;56.90;;;;;;4053765;29;20044;-52
2022/10/31 09:28:58;;;;;;;0.40;0.30;;;27.70;56.90;;;;;;4055131;29;20486;-46
2022/10/31 09:31:20;;;;;;;0.85;0.30;;;27.70;56.90;;;;;;4054994;29;20629;-49
2022/10/31 09:33:43;;;;;;;1.15;0.60;;;27.70;57.10;;;;;;4057036;29;20039;-49
2022/10/31 09:36:06;;;;;;;0.73;0.57;;;27.70;56.20;;;;;;4051495;29;20102;-51
2022/10/31 09:38:28;;;;;;;0.87;0.50;;;27.70;55.80;;;;;;4054752;29;20482;-47
2022/10/31 09:41:04;;;;;;;0.40;0.40;;;27.60;55.60;;;;;;4056458;29;20534;-51
2022/10/31 09:44:12;;;;;;;1.10;0.73;;;27.60;55.60;;;;;;4047614;29;20773;-50
2022/10/31 09:47:07;;;;;;;0.68;0.57;;;27.60;55.60;;;;;;4031731;29;20043;-51
2022/10/31 09:49:45;;;;;;;2.22;0.82;;;27.50;55.80;;;;;;4046080;29;20052;-45
2022/10/31 09:52:16;;;;;;;0.65;0.60;;;27.50;56.70;;;;;;4052852;29;20060;-48
2022/10/31 09:55:00;;;;;;;7.38;1.45;;;27.50;57.20;;;;;;4048276;29;20055;-60
2022/10/31 09:57:42;;;;;;;5.78;0.68;;;27.50;58.30;;;;;;4051754;29;20054;-57
2022/10/31 10:00:15;;;;;;;2.72;0.90;;;27.40;58.60;;;;;;4052437;29;20043;-59
2022/10/31 10:02:47;;;;;;;2.72;0.70;;;27.40;58.90;;;;;;4050811;29;20048;-58
2022/10/31 10:05:31;;;;;;;1.88;0.55;;;27.30;59.00;;;;;;4047282;29;20048;-54
2022/10/31 10:08:11;;;;;;;3.25;0.68;;;27.30;59.30;;;;;;4049711;29;20048;-51
2022/10/31 10:10:47;;;;;;;1.50;0.65;;;27.30;59.30;;;;;;4050470;29;20589;-56
2022/10/31 10:13:45;;;;;;;0.40;0.40;;;27.20;59.20;;;;;;4050277;29;20059;-54
2022/10/31 10:16:32;;;;;;;2.90;0.70;;;27.20;59.40;;;;;;4053434;29;20052;-55
2022/10/31 10:19:02;;;;;;;1.80;0.52;;;27.30;59.70;;;;;;4048371;29;20044;-51
2022/10/31 10:21:33;;;;;;;4.20;0.77;;;27.20;59.60;;;;;;4049336;29;20051;-52
2022/10/31 10:24:02;;;;;;;3.03;0.73;;;27.20;59.80;;;;;;4054834;29;20046;-52
2022/10/31 10:26:38;;;;;;;0.40;0.40;;;27.20;59.70;;;;;;4054782;29;20036;-58
2022/10/31 10:29:30;;;;;;;4.38;0.60;;;27.20;59.80;;;;;;4058509;29;20617;-46
2022/10/31 10:31:54;;;;;;;3.92;0.90;;;27.20;59.90;;;;;;4056641;29;20119;-56
2022/10/31 10:34:29;;;;;;;1.17;0.68;;;27.20;59.90;;;;;;4052603;29;20074;-48
2022/10/31 10:36:58;;;;;;;1.85;0.60;;;27.20;60.10;;;;;;4057858;29;20036;-52
2022/10/31 10:39:48;;;;;;;2.22;0.70;;;27.20;60.00;;;;;;4055554;29;20072;-60
2022/10/31 10:47:51;;;;;;;6.45;1.05;;;27.20;60.20;;;;;;4055133;29;20040;-59
2022/10/31 10:50:27;;;;;;;5.40;1.02;;;27.20;60.20;;;;;;4056971;29;20059;-56
2022/10/31 10:53:37;;;;;;;6.18;0.95;;;27.20;60.30;;;;;;4057226;29;20107;-57
2022/10/31 10:56:37;;;;;;;4.50;1.00;;;27.20;60.20;;;;;;4057505;29;20051;-58
2022/10/31 10:59:00;;;;;;;8.13;1.05;;;27.20;60.30;;;;;;4042158;29;20469;-59
2022/10/31 11:01:23;;;;;;;9.23;1.05;;;27.30;60.40;;;;;;4052116;29;20040;-57
2022/10/31 11:03:46;;;;;;;11.65;0.98;;;27.30;60.40;;;;;;4056350;29;20111;-59
2022/10/31 11:06:21;;;;;;;4.97;1.00;;;27.30;60.40;;;;;;4057909;29;20052;-58
2022/10/31 11:08:44;;;;;;;3.00;1.00;;;27.30;60.40;;;;;;4057630;29;20040;-55
2022/10/31 11:11:29;;;;;;;2.33;0.90;;;27.30;60.40;;;;;;4056529;29;20047;-53
2022/10/31 11:14:02;;;;;;;1.58;0.55;;;27.40;60.50;;;;;;4056885;29;20036;-57
2022/10/31 11:16:36;;;;;;;3.47;1.33;;;27.40;60.50;;;;;;4057739;29;20044;-56
2022/10/31 11:19:16;;;;;;;1.40;0.68;;;27.40;60.40;;;;;;4057700;29;20039;-58
2022/10/31 11:21:39;;;;;;;5.35;0.77;;;27.40;60.30;;;;;;4058401;29;20143;-59
2022/10/31 11:24:10;;;;;;;0.77;0.45;;;27.40;60.30;;;;;;4056967;29;20040;-57
2022/10/31 11:26:35;;;;;;;1.73;0.70;;;27.50;60.20;;;;;;4056680;29;20051;-58
2022/10/31 11:28:59;;;;;;;1.30;0.60;;;27.40;60.10;;;;;;4055252;29;20051;-57
2022/10/31 11:31:21;;;;;;;4.03;1.02;;;27.40;60.20;;;;;;4057158;29;20416;-52
2022/10/31 11:33:50;;;;;;;2.25;0.70;;;27.40;60.40;;;;;;4057143;29;20108;-54
2022/10/31 11:36:37;;;;;;;2.97;0.75;;;27.40;60.50;;;;;;4058023;29;20055;-52
2022/10/31 11:39:02;;;;;;;4.32;0.68;;;27.40;60.50;;;;;;4054710;29;20154;-60
2022/10/31 11:41:38;;;;;;;3.47;0.50;;;27.40;60.60;;;;;;4056698;29;20044;-48
2022/10/31 11:44:12;;;;;;;4.68;1.00;;;27.40;60.70;;;;;;4056651;29;20044;-54
2022/10/31 11:46:53;;;;;;;9.77;0.90;;;27.40;60.90;;;;;;4056541;29;20032;-47
2022/10/31 11:49:21;;;;;;;4.90;0.95;;;27.40;60.80;;;;;;4053902;29;20049;-48
2022/10/31 11:51:48;;;;;;;0.43;0.43;;;27.40;60.90;;;;;;4057876;29;20052;-48
2022/10/31 11:54:26;;;;;;;3.85;1.00;;;27.30;60.80;;;;;;4057685;29;20051;-46
2022/10/31 11:56:49;;;;;;;2.40;0.80;;;27.30;61.00;;;;;;4056595;29;20044;-47
2022/10/31 11:59:31;;;;;;;0.82;0.50;;;27.30;61.10;;;;;;4054865;29;20044;-49
2022/10/31 12:01:55;;;;;;;1.25;0.65;;;27.30;61.20;;;;;;4053556;29;20060;-46
2022/10/31 12:04:18;;;;;;;2.22;0.73;;;27.20;61.20;;;;;;4057985;29;20416;-48
2022/10/31 12:06:45;;;;;;;0.30;0.30;;;27.20;61.30;;;;;;4055172;29;20044;-52
2022/10/31 12:09:23;;;;;;;0.93;0.43;;;27.20;61.50;;;;;;4054251;29;20044;-52
2022/10/31 12:11:54;;;;;;;2.17;0.50;;;27.20;61.50;;;;;;4056060;29;20083;-48
2022/10/31 12:15:00;;;;;;;2.45;0.80;;;27.20;62.00;;;;;;4053186;29;20594;-51
2022/10/31 12:18:11;;;;;;;2.92;0.75;;;27.20;61.50;;;;;;4056739;29;20048;-51
2022/10/31 12:20:59;;;;;;;2.15;0.57;;;27.20;61.50;;;;;;4055611;29;20508;-51
2022/10/31 12:23:59;;;;;;;0.60;0.50;;;27.20;61.60;;;;;;4043941;29;20420;-47
2022/10/31 12:26:43;;;;;;;1.30;0.40;;;27.10;61.70;;;;;;4054171;29;20032;-45
2022/10/31 12:29:27;;;;;;;0.90;0.60;;;27.20;61.70;;;;;;4053617;29;20063;-46
2022/10/31 12:32:29;;;;;;;1.73;0.60;;;27.10;61.70;;;;;;4054672;29;20047;-48
2022/10/31 12:35:12;;;;;;;0.77;0.52;;;27.10;61.80;;;;;;4054665;29;20051;-45
2022/10/31 12:37:52;;;;;;;3.55;0.70;;;27.10;61.70;;;;;;4054650;29;20526;-47
2022/10/31 12:40:20;;;;;;;0.98;0.60;;;27.10;61.70;;;;;;4056283;29;20084;-46
2022/10/31 12:43:01;;;;;;;3.10;0.57;;;27.10;61.80;;;;;;4057361;29;20535;-45
2022/10/31 12:45:51;;;;;;;1.35;0.68;;;27.10;61.80;;;;;;4054643;29;20115;-47
2022/10/31 12:48:17;;;;;;;2.53;0.80;;;27.00;61.80;;;;;;4050414;29;20075;-46
2022/10/31 12:51:01;;;;;;;2.08;0.90;;;27.10;62.00;;;;;;4054422;29;20345;-46
2022/10/31 12:53:28;;;;;;;6.38;0.88;;;27.10;61.90;;;;;;4053925;29;20051;-48
2022/10/31 12:56:09;;;;;;;3.70;1.00;;;27.00;61.80;;;;;;4057033;29;20173;-47
2022/10/31 12:58:44;;;;;;;3.70;0.63;;;27.00;62.00;;;;;;4054045;29;20547;-46